Time;durP1;ratioP1;P1;durP2;ratioP2;P2;SDS_P1;SDS_P2;PMS_P1;PMS_P2;Temp;Humidity;BMP_temperature;BMP_pressure;BME280_temperature;BME280_humidity;BME280_pressure;Samples;Min_cycle;Max_cycle;Signal;HPM_P1;HPM_P2
2024/03/19 00:01:48;;;;;;;35.50;15.85;;;3.00;97.80;;;;;;4939582;29;20035;-83
2024/03/19 00:04:16;;;;;;;42.53;13.68;;;2.90;98.00;;;;;;4954693;28;20117;-84
2024/03/19 00:06:42;;;;;;;36.72;12.43;;;2.80;98.20;;;;;;4955229;28;20024;-84
2024/03/19 00:09:08;;;;;;;50.92;17.20;;;2.80;98.40;;;;;;4954821;29;20389;-84
2024/03/19 00:11:34;;;;;;;38.03;12.70;;;2.80;98.60;;;;;;4955912;28;20023;-83
2024/03/19 00:14:00;;;;;;;46.97;14.98;;;2.70;98.70;;;;;;4956951;29;20023;-83
2024/03/19 00:16:25;;;;;;;44.90;14.45;;;2.70;98.90;;;;;;4960952;28;20064;-83
2024/03/19 00:18:51;;;;;;;44.47;15.23;;;2.80;99.10;;;;;;4962742;29;20028;-82
2024/03/19 00:21:17;;;;;;;49.05;15.43;;;2.80;99.40;;;;;;4954477;28;20495;-84
2024/03/19 00:23:43;;;;;;;52.90;16.95;;;2.80;99.10;;;;;;4954762;28;20081;-84
2024/03/19 00:26:08;;;;;;;47.97;15.07;;;2.80;99.10;;;;;;4954222;28;20480;-84
2024/03/19 00:28:35;;;;;;;31.08;14.50;;;2.80;99.10;;;;;;4954455;28;20023;-83
2024/03/19 00:31:01;;;;;;;50.65;15.18;;;2.90;99.20;;;;;;4940951;28;20385;-84
2024/03/19 00:33:27;;;;;;;45.10;14.40;;;2.90;99.20;;;;;;4955193;28;20032;-83
2024/03/19 00:35:52;;;;;;;42.88;16.25;;;3.00;99.30;;;;;;4954432;28;20016;-84
2024/03/19 00:38:19;;;;;;;48.55;15.55;;;3.00;99.20;;;;;;4954406;29;20028;-83
2024/03/19 00:40:45;;;;;;;34.70;15.33;;;3.10;99.10;;;;;;4954109;28;20111;-83
2024/03/19 00:43:11;;;;;;;40.92;16.50;;;3.10;99.30;;;;;;4954357;29;20032;-83
2024/03/19 00:45:37;;;;;;;39.28;14.27;;;3.10;98.90;;;;;;4954548;28;20079;-82
2024/03/19 00:48:04;;;;;;;48.63;15.68;;;3.10;98.90;;;;;;4954430;28;20082;-83
2024/03/19 00:50:31;;;;;;;30.95;13.48;;;3.10;98.80;;;;;;4954108;29;20102;-83
2024/03/19 00:52:57;;;;;;;32.43;13.87;;;3.10;98.80;;;;;;4954341;28;20027;-84
2024/03/19 00:55:23;;;;;;;47.72;16.98;;;3.10;98.80;;;;;;4953770;29;20104;-84
2024/03/19 00:57:48;;;;;;;37.35;14.32;;;3.00;98.70;;;;;;4948432;29;20023;-84
2024/03/19 01:00:14;;;;;;;34.47;15.27;;;2.90;98.80;;;;;;4956052;29;20035;-83
2024/03/19 01:02:41;;;;;;;39.88;16.63;;;2.90;98.90;;;;;;4956444;29;20030;-85
2024/03/19 01:05:08;;;;;;;36.25;16.67;;;3.00;99.00;;;;;;4955130;28;20070;-85
2024/03/19 01:07:46;;;;;;;35.72;15.75;;;2.90;98.90;;;;;;4961743;28;20103;-85
2024/03/19 01:10:12;;;;;;;;;;;2.90;99.00;;;;;;4962948;28;20020;-85
2024/03/19 01:12:39;;;;;;;39.85;14.45;;;2.90;98.90;;;;;;4957805;28;20276;-86
2024/03/19 01:15:06;;;;;;;36.15;15.85;;;2.90;99.00;;;;;;4957641;28;20473;-85
2024/03/19 01:17:35;;;;;;;36.40;16.63;;;2.90;99.00;;;;;;4956451;28;20031;-84
2024/03/19 01:20:04;;;;;;;39.35;17.23;;;2.90;99.10;;;;;;4953041;28;20094;-84
2024/03/19 01:22:30;;;;;;;32.65;15.90;;;2.90;99.20;;;;;;4957989;28;20019;-85
2024/03/19 01:24:56;;;;;;;38.80;17.35;;;2.90;99.20;;;;;;4957391;28;20458;-86
2024/03/19 01:27:22;;;;;;;41.80;19.02;;;2.90;99.20;;;;;;4957642;29;20058;-86
2024/03/19 01:29:47;;;;;;;44.03;19.15;;;2.90;99.10;;;;;;4958050;29;20030;-85
2024/03/19 01:32:13;;;;;;;40.30;17.38;;;2.80;99.20;;;;;;4957622;29;20027;-85
2024/03/19 01:34:39;;;;;;;31.17;15.50;;;2.90;99.30;;;;;;4958176;28;20413;-84
2024/03/19 01:37:05;;;;;;;47.67;19.90;;;2.90;99.30;;;;;;4959313;28;20094;-85
2024/03/19 01:39:32;;;;;;;29.50;16.30;;;2.90;99.50;;;;;;4957418;29;20046;-85
2024/03/19 01:41:57;;;;;;;54.85;18.67;;;2.80;99.30;;;;;;4957983;28;20485;-83
2024/03/19 01:44:23;;;;;;;39.10;17.05;;;2.80;99.40;;;;;;4958340;28;20039;-83
2024/03/19 01:46:49;;;;;;;41.03;18.17;;;2.80;99.60;;;;;;4958602;28;20034;-85
2024/03/19 01:49:16;;;;;;;43.17;18.27;;;2.90;99.60;;;;;;4957687;28;20156;-85
2024/03/19 01:51:43;;;;;;;41.30;19.43;;;2.90;99.50;;;;;;4957635;28;20032;-85
2024/03/19 01:54:10;;;;;;;32.65;16.92;;;2.90;99.40;;;;;;4957520;28;20027;-86
2024/03/19 01:56:37;;;;;;;33.83;15.27;;;2.90;99.40;;;;;;4958251;28;20031;-83
2024/03/19 01:59:03;;;;;;;47.55;18.27;;;2.90;99.40;;;;;;4957506;28;20083;-82
2024/03/19 02:01:29;;;;;;;44.58;19.98;;;2.90;99.40;;;;;;4957380;28;20039;-83
2024/03/19 02:03:55;;;;;;;46.67;18.92;;;2.90;99.40;;;;;;4956168;29;20038;-84
2024/03/19 02:06:21;;;;;;;35.75;17.13;;;2.90;99.40;;;;;;4957572;28;20050;-85
2024/03/19 02:09:19;;;;;;;43.45;18.27;;;2.90;99.50;;;;;;4957710;29;20035;-84
2024/03/19 02:11:45;;;;;;;39.30;17.90;;;2.90;99.30;;;;;;4923293;29;20035;-84
2024/03/19 02:14:10;;;;;;;44.05;17.20;;;2.80;99.30;;;;;;4957954;28;20086;-84
2024/03/19 02:16:36;;;;;;;28.95;15.70;;;2.80;99.40;;;;;;4953533;29;20023;-83
2024/03/19 02:19:05;;;;;;;33.72;16.10;;;2.90;99.50;;;;;;4956399;28;20039;-83
2024/03/19 02:21:32;;;;;;;35.25;16.98;;;2.90;99.50;;;;;;4957195;28;20050;-82
2024/03/19 02:24:04;;;;;;;38.45;19.00;;;2.90;99.40;;;;;;4959847;28;20031;-85
2024/03/19 02:26:31;;;;;;;41.75;17.70;;;2.90;99.40;;;;;;4959206;29;20050;-84
2024/03/19 02:28:58;;;;;;;41.70;17.73;;;2.80;99.40;;;;;;4959771;29;20094;-82
2024/03/19 02:31:27;;;;;;;44.33;16.45;;;2.80;99.50;;;;;;4962918;28;20628;-82
2024/03/19 02:33:53;;;;;;;38.63;18.15;;;2.80;99.60;;;;;;4959758;28;20469;-83
2024/03/19 02:36:19;;;;;;;38.35;19.52;;;2.80;99.70;;;;;;4959039;28;20082;-84
2024/03/19 02:38:44;;;;;;;44.53;17.08;;;2.90;99.60;;;;;;4958734;28;20027;-84
2024/03/19 02:41:10;;;;;;;34.90;18.48;;;3.00;99.50;;;;;;4959055;28;20035;-83
2024/03/19 02:43:37;;;;;;;33.13;17.38;;;3.00;99.50;;;;;;4959404;28;20027;-84
2024/03/19 02:46:03;;;;;;;38.80;18.07;;;3.00;99.50;;;;;;4958303;28;20035;-84
2024/03/19 02:48:29;;;;;;;44.05;18.00;;;3.10;99.50;;;;;;4958835;28;20288;-82
2024/03/19 02:50:54;;;;;;;36.05;18.25;;;3.00;99.20;;;;;;4957642;29;20035;-84
2024/03/19 02:53:22;;;;;;;42.45;19.10;;;3.00;99.30;;;;;;4959771;28;20038;-85
2024/03/19 02:55:48;;;;;;;43.78;17.95;;;3.00;99.40;;;;;;4959122;28;20023;-84
2024/03/19 02:58:18;;;;;;;30.58;17.05;;;3.10;99.50;;;;;;4959324;28;20035;-84
2024/03/19 03:00:44;;;;;;;34.83;18.10;;;3.10;99.40;;;;;;4956600;28;20106;-83
2024/03/19 03:03:10;;;;;;;34.47;18.17;;;3.10;99.30;;;;;;4956545;28;20035;-84
2024/03/19 03:05:37;;;;;;;33.05;18.30;;;3.00;99.60;;;;;;4956215;28;20502;-83
2024/03/19 03:08:03;;;;;;;35.88;17.92;;;3.00;99.40;;;;;;4955568;29;20026;-85
2024/03/19 03:10:29;;;;;;;38.72;18.63;;;3.10;99.50;;;;;;4957254;28;20103;-84
2024/03/19 03:12:55;;;;;;;36.15;16.52;;;3.00;99.40;;;;;;4955761;28;20481;-84
2024/03/19 03:15:21;;;;;;;27.27;15.82;;;3.10;99.40;;;;;;4947014;29;20079;-83
2024/03/19 03:17:47;;;;;;;31.33;15.90;;;3.10;99.40;;;;;;4952405;29;20484;-83
2024/03/19 03:20:13;;;;;;;36.08;19.02;;;3.10;99.20;;;;;;4955460;28;20163;-83
2024/03/19 03:22:39;;;;;;;42.78;20.60;;;3.00;99.20;;;;;;4955886;28;20020;-84
2024/03/19 03:25:11;;;;;;;37.50;18.13;;;2.90;99.30;;;;;;4957795;28;20039;-84
2024/03/19 03:27:44;;;;;;;39.33;17.10;;;2.80;99.30;;;;;;4959627;28;20496;-83
2024/03/19 03:30:11;;;;;;;41.70;18.20;;;2.90;99.60;;;;;;4967516;28;20026;-82
2024/03/19 03:32:38;;;;;;;36.30;17.63;;;2.90;99.50;;;;;;4963222;28;20047;-85
2024/03/19 03:35:04;;;;;;;33.53;19.50;;;2.90;99.30;;;;;;4940006;29;20127;-85
2024/03/19 03:37:31;;;;;;;39.00;17.67;;;2.80;99.40;;;;;;4958536;28;20098;-85
2024/03/19 03:39:57;;;;;;;39.60;18.57;;;2.90;99.50;;;;;;4958089;28;20037;-84
2024/03/19 03:42:27;;;;;;;38.05;17.92;;;2.90;99.40;;;;;;4953779;29;20033;-84
2024/03/19 03:44:53;;;;;;;40.00;18.65;;;3.00;99.50;;;;;;4955248;28;20023;-85
2024/03/19 03:47:18;;;;;;;26.58;14.45;;;3.00;99.60;;;;;;4954950;28;20027;-84
2024/03/19 03:49:47;;;;;;;38.88;18.23;;;3.00;99.50;;;;;;4955039;28;20070;-85
2024/03/19 03:52:13;;;;;;;37.15;19.05;;;2.90;99.60;;;;;;4955533;28;20484;-86
2024/03/19 03:54:39;;;;;;;36.25;18.35;;;2.80;99.80;;;;;;4955286;28;20034;-85
2024/03/19 03:57:05;;;;;;;51.88;19.23;;;2.80;99.90;;;;;;4955334;28;20448;-87
2024/03/19 03:59:31;;;;;;;53.00;18.60;;;2.80;99.90;;;;;;4944416;29;20039;-85
2024/03/19 04:01:57;;;;;;;38.72;17.55;;;2.80;99.90;;;;;;4956260;28;20492;-87
2024/03/19 04:04:22;;;;;;;40.58;20.13;;;2.80;99.90;;;;;;4956548;28;20027;-85
2024/03/19 04:06:51;;;;;;;39.70;19.40;;;2.80;99.90;;;;;;4955594;28;20015;-87
2024/03/19 04:09:17;;;;;;;42.20;19.15;;;2.70;99.90;;;;;;4956083;29;20058;-85
2024/03/19 04:11:43;;;;;;;42.08;21.35;;;2.80;99.90;;;;;;4956725;28;20025;-86
2024/03/19 04:14:08;;;;;;;35.50;18.27;;;2.80;99.90;;;;;;4947749;29;20035;-85
2024/03/19 04:16:34;;;;;;;50.25;19.05;;;2.70;99.90;;;;;;4954045;29;20508;-85
2024/03/19 04:19:00;;;;;;;42.85;19.38;;;2.70;99.90;;;;;;4955815;28;20444;-85
2024/03/19 04:21:26;;;;;;;40.80;19.40;;;2.70;99.90;;;;;;4955292;28;20122;-86
2024/03/19 04:23:51;;;;;;;37.13;19.55;;;2.60;99.90;;;;;;4954786;28;20024;-84
2024/03/19 04:26:18;;;;;;;41.30;19.80;;;2.60;99.90;;;;;;4955227;28;20023;-87
2024/03/19 04:28:44;;;;;;;40.80;20.17;;;2.70;99.90;;;;;;4954751;28;20023;-86
2024/03/19 04:31:10;;;;;;;35.00;20.42;;;2.70;99.90;;;;;;4954521;28;20028;-84
2024/03/19 04:33:36;;;;;;;36.42;17.13;;;2.70;99.90;;;;;;4954219;29;20030;-85
2024/03/19 04:36:02;;;;;;;39.10;18.63;;;2.70;99.90;;;;;;4954439;28;20108;-86
2024/03/19 04:38:28;;;;;;;37.28;20.92;;;2.70;99.90;;;;;;4954643;28;20026;-85
2024/03/19 04:40:54;;;;;;;40.45;18.63;;;2.80;99.90;;;;;;4953999;29;20477;-85
2024/03/19 04:43:20;;;;;;;46.38;21.63;;;2.80;99.90;;;;;;4957529;28;20027;-84
2024/03/19 04:45:46;;;;;;;40.78;18.27;;;2.90;99.90;;;;;;4958517;29;20469;-85
2024/03/19 04:48:12;;;;;;;44.75;19.15;;;3.00;99.90;;;;;;4958985;28;20086;-87
2024/03/19 04:50:38;;;;;;;49.88;20.65;;;3.00;99.90;;;;;;4958471;28;20106;-84
2024/03/19 04:53:04;;;;;;;50.50;21.38;;;3.10;99.90;;;;;;4958889;29;20023;-84
2024/03/19 04:55:29;;;;;;;39.83;18.77;;;3.10;99.90;;;;;;4964779;28;20031;-85
2024/03/19 04:57:55;;;;;;;39.00;20.27;;;3.20;99.90;;;;;;4957903;28;20392;-84
2024/03/19 05:00:21;;;;;;;41.60;20.10;;;3.20;99.90;;;;;;4957472;29;20580;-83
2024/03/19 05:02:47;;;;;;;47.85;18.85;;;3.20;99.90;;;;;;4957539;28;20102;-83
2024/03/19 05:05:13;;;;;;;36.92;18.08;;;3.20;99.90;;;;;;4957933;28;20111;-82
2024/03/19 05:07:43;;;;;;;49.22;21.23;;;3.30;99.90;;;;;;4957499;28;20024;-85
2024/03/19 05:10:08;;;;;;;36.08;18.83;;;3.40;99.90;;;;;;4957433;28;20447;-82
2024/03/19 05:12:34;;;;;;;36.58;20.85;;;3.40;99.70;;;;;;4948432;29;20115;-83
2024/03/19 05:15:00;;;;;;;38.67;20.20;;;3.50;99.70;;;;;;4956529;29;20105;-82
2024/03/19 05:17:26;;;;;;;44.80;19.60;;;3.50;99.70;;;;;;4956376;29;20043;-84
2024/03/19 05:19:52;;;;;;;44.28;19.83;;;3.50;99.60;;;;;;4957092;29;20445;-84
2024/03/19 05:22:18;;;;;;;43.65;19.60;;;3.50;99.50;;;;;;4957692;28;20082;-86
2024/03/19 05:24:44;;;;;;;43.28;20.08;;;3.50;99.20;;;;;;4965564;28;20096;-87
2024/03/19 05:27:10;;;;;;;42.03;19.45;;;3.50;99.10;;;;;;4956493;28;20027;-81
2024/03/19 05:29:36;;;;;;;43.08;20.45;;;3.50;99.00;;;;;;4951147;29;20496;-86
2024/03/19 05:32:05;;;;;;;44.35;21.40;;;3.50;99.00;;;;;;4957271;28;20015;-85
2024/03/19 05:34:44;;;;;;;43.17;18.63;;;3.40;99.00;;;;;;4958719;28;20019;-87
2024/03/19 05:43:23;;;;;;;35.45;19.02;;;3.50;99.10;;;;;;4861540;29;20053;-82
2024/03/19 05:45:49;;;;;;;40.38;18.08;;;3.60;99.00;;;;;;4909727;29;20036;-85
2024/03/19 05:48:15;;;;;;;40.97;20.00;;;3.60;99.00;;;;;;4917572;29;20020;-85
2024/03/19 05:50:40;;;;;;;32.75;17.65;;;3.50;98.50;;;;;;4921908;29;20546;-85
2024/03/19 05:53:06;;;;;;;43.67;20.88;;;3.40;98.90;;;;;;4917693;29;20035;-84
2024/03/19 05:55:34;;;;;;;46.15;20.70;;;3.40;99.50;;;;;;4913297;29;20068;-85
2024/03/19 05:58:00;;;;;;;38.60;19.58;;;3.50;99.30;;;;;;4926852;29;20036;-86
2024/03/19 06:00:26;;;;;;;38.72;20.15;;;3.50;99.10;;;;;;4919758;29;20437;-85
2024/03/19 06:02:52;;;;;;;44.20;20.13;;;3.50;99.10;;;;;;4916623;29;20024;-85
2024/03/19 06:05:18;;;;;;;37.50;20.65;;;3.50;99.10;;;;;;4920913;29;20055;-87
2024/03/19 06:07:43;;;;;;;58.67;22.42;;;3.50;99.10;;;;;;4918633;29;20083;-85
2024/03/19 06:10:09;;;;;;;49.90;20.88;;;3.50;99.00;;;;;;4935840;29;20036;-83
2024/03/19 06:12:39;;;;;;;40.30;24.55;;;3.50;98.90;;;;;;4928799;29;20501;-83
2024/03/19 06:15:07;;;;;;;42.50;21.52;;;3.50;99.00;;;;;;4930323;29;20012;-84
2024/03/19 06:17:36;;;;;;;43.90;19.92;;;3.50;99.00;;;;;;4949209;29;20050;-85
2024/03/19 06:20:04;;;;;;;37.58;18.30;;;3.50;99.10;;;;;;4958108;28;20094;-85
2024/03/19 06:22:30;;;;;;;;;;;3.50;99.20;;;;;;4957321;28;20078;-84
2024/03/19 06:24:58;;;;;;;34.95;20.10;;;3.50;99.00;;;;;;4944111;29;19919;-84
2024/03/19 06:27:24;;;;;;;42.97;19.38;;;3.60;99.00;;;;;;4950259;29;20559;-89
2024/03/19 06:29:53;;;;;;;47.15;21.63;;;3.60;99.10;;;;;;4958092;28;20058;-83
2024/03/19 06:32:20;;;;;;;25.65;13.60;;;3.60;99.00;;;;;;4951786;28;20062;-83
2024/03/19 06:34:46;;;;;;;;;;;3.50;98.70;;;;;;4950652;28;20036;-82
2024/03/19 06:37:12;;;;;;;39.95;19.85;;;3.40;98.70;;;;;;4954202;29;19982;-83
2024/03/19 06:39:38;;;;;;;40.85;17.77;;;3.40;99.00;;;;;;4952360;29;20074;-83
2024/03/19 06:42:05;;;;;;;38.78;21.33;;;3.40;99.30;;;;;;4959692;28;20437;-82
2024/03/19 06:44:31;;;;;;;32.67;19.13;;;3.50;99.50;;;;;;4950797;29;20067;-83
2024/03/19 06:46:57;;;;;;;34.45;19.95;;;3.50;99.40;;;;;;4951026;29;20031;-81
2024/03/19 06:49:24;;;;;;;38.03;19.75;;;3.40;99.60;;;;;;4953944;29;20171;-81
2024/03/19 06:51:50;;;;;;;36.88;20.88;;;3.40;99.60;;;;;;4956859;28;20127;-81
2024/03/19 06:54:16;;;;;;;42.50;19.15;;;3.30;99.70;;;;;;4954485;28;20070;-82
2024/03/19 06:56:42;;;;;;;47.67;22.38;;;3.40;99.90;;;;;;4951620;29;20067;-84
2024/03/19 06:59:09;;;;;;;41.25;22.45;;;3.50;99.90;;;;;;4955104;28;20036;-83
2024/03/19 07:01:36;;;;;;;36.90;20.27;;;3.60;99.90;;;;;;4954801;28;20106;-83
2024/03/19 07:04:03;;;;;;;32.72;18.50;;;3.70;99.80;;;;;;4949670;29;20043;-84
2024/03/19 07:06:29;;;;;;;42.78;17.80;;;3.80;99.30;;;;;;4955931;28;20091;-83
2024/03/19 07:08:55;;;;;;;40.83;16.98;;;3.70;98.80;;;;;;4955213;28;20078;-84
2024/03/19 07:11:21;;;;;;;39.88;19.73;;;3.70;99.10;;;;;;4956199;28;20024;-82
2024/03/19 07:13:47;;;;;;;40.75;19.58;;;3.80;99.10;;;;;;4954628;29;20084;-82
2024/03/19 07:16:13;;;;;;;46.40;23.33;;;3.90;98.70;;;;;;4952781;29;20441;-85
2024/03/19 07:18:39;;;;;;;49.60;21.90;;;4.00;98.60;;;;;;4942938;28;20059;-82
2024/03/19 07:21:05;;;;;;;40.08;21.80;;;4.10;98.50;;;;;;4948818;29;20059;-80
2024/03/19 07:23:31;;;;;;;41.55;19.13;;;4.20;97.70;;;;;;4953753;29;20380;-79
2024/03/19 07:25:57;;;;;;;48.15;21.38;;;4.00;97.50;;;;;;4953874;29;20125;-80
2024/03/19 07:28:22;;;;;;;47.25;22.88;;;3.90;97.80;;;;;;4955092;28;20542;-82
2024/03/19 07:30:48;;;;;;;42.05;21.70;;;4.00;98.20;;;;;;4954496;28;20409;-81
2024/03/19 07:33:14;;;;;;;41.38;21.00;;;4.20;98.30;;;;;;4954477;29;20023;-82
2024/03/19 07:35:40;;;;;;;38.72;19.20;;;4.30;98.10;;;;;;4947205;28;20778;-80
2024/03/19 07:38:07;;;;;;;47.58;20.77;;;4.40;98.00;;;;;;4952346;28;20034;-81
2024/03/19 07:40:34;;;;;;;43.83;21.00;;;4.50;97.70;;;;;;4954004;28;20027;-82
2024/03/19 07:43:03;;;;;;;42.50;20.77;;;4.40;97.30;;;;;;4945575;29;20072;-81
2024/03/19 07:45:29;;;;;;;45.90;20.52;;;4.30;97.20;;;;;;4950852;28;20019;-83
2024/03/19 07:47:56;;;;;;;44.78;21.20;;;4.30;97.50;;;;;;4946654;28;20031;-84
2024/03/19 07:50:28;;;;;;;39.08;18.98;;;4.40;97.60;;;;;;4938387;29;20047;-85
2024/03/19 07:52:54;;;;;;;41.55;20.45;;;4.50;97.50;;;;;;4938423;29;20030;-82
2024/03/19 07:55:21;;;;;;;42.22;21.38;;;4.60;97.30;;;;;;4943963;29;20039;-83
2024/03/19 07:57:46;;;;;;;51.22;22.15;;;4.60;97.20;;;;;;4954326;28;20472;-83
2024/03/19 08:00:14;;;;;;;45.22;21.88;;;4.60;96.70;;;;;;4945530;28;20054;-84
2024/03/19 08:02:41;;;;;;;39.58;20.80;;;4.60;96.70;;;;;;4952171;28;20082;-83
2024/03/19 08:05:13;;;;;;;35.97;19.20;;;4.60;96.70;;;;;;4953980;28;20039;-81
2024/03/19 08:07:41;;;;;;;35.47;19.38;;;4.40;96.40;;;;;;4953328;28;20027;-84
2024/03/19 08:10:07;;;;;;;35.22;20.77;;;4.20;96.70;;;;;;4952576;29;20019;-83
2024/03/19 08:12:34;;;;;;;36.88;17.63;;;4.20;96.90;;;;;;4934254;29;20043;-88
2024/03/19 08:15:03;;;;;;;44.47;19.90;;;4.20;97.20;;;;;;4954038;29;20500;-83
2024/03/19 08:17:30;;;;;;;31.20;16.52;;;4.30;97.30;;;;;;4949620;28;20032;-83
2024/03/19 08:20:06;;;;;;;43.10;19.65;;;4.40;97.00;;;;;;4947940;28;20043;-83
2024/03/19 08:22:32;;;;;;;35.70;18.38;;;4.40;97.10;;;;;;4946957;29;20027;-85
2024/03/19 08:24:58;;;;;;;35.45;18.70;;;4.50;96.90;;;;;;4951755;28;20023;-84
2024/03/19 08:27:25;;;;;;;42.00;17.10;;;4.30;96.60;;;;;;4953778;28;20098;-85
2024/03/19 08:29:51;;;;;;;;;;;4.20;96.90;;;;;;4945858;29;20079;-85
2024/03/19 08:32:18;;;;;;;41.33;16.35;;;4.20;97.00;;;;;;4935072;29;19910;-86
2024/03/19 08:34:44;;;;;;;42.83;17.33;;;4.40;97.20;;;;;;4936704;29;20115;-83
2024/03/19 08:37:11;;;;;;;44.45;19.00;;;4.40;97.10;;;;;;4953493;29;20333;-83
2024/03/19 08:39:36;;;;;;;37.00;19.27;;;4.50;96.60;;;;;;4954760;28;20043;-83
2024/03/19 08:42:02;;;;;;;36.28;19.77;;;4.50;96.50;;;;;;4957282;29;20062;-84
2024/03/19 08:44:29;;;;;;;37.83;20.75;;;4.30;96.50;;;;;;4954729;28;20043;-85
2024/03/19 08:46:55;;;;;;;40.13;18.52;;;4.30;97.00;;;;;;4953810;28;20860;-85
2024/03/19 08:49:21;;;;;;;43.15;20.35;;;4.30;96.70;;;;;;4945946;28;20046;-83
2024/03/19 08:51:46;;;;;;;36.17;18.33;;;4.20;97.00;;;;;;4953845;28;20019;-84
2024/03/19 08:54:13;;;;;;;39.72;18.95;;;4.30;96.80;;;;;;4952314;29;20027;-85
2024/03/19 08:56:39;;;;;;;35.15;16.58;;;4.30;96.90;;;;;;4954183;28;20055;-85
2024/03/19 08:59:07;;;;;;;35.97;17.58;;;4.40;96.90;;;;;;4940781;28;20035;-85
2024/03/19 09:01:33;;;;;;;31.45;18.25;;;4.60;96.80;;;;;;4950478;29;20086;-84
2024/03/19 09:03:59;;;;;;;37.80;17.70;;;4.60;96.30;;;;;;4953836;28;20027;-84
2024/03/19 09:06:25;;;;;;;45.10;19.02;;;4.60;96.50;;;;;;4953430;29;20397;-85
2024/03/19 09:08:52;;;;;;;39.35;19.92;;;4.50;96.30;;;;;;4937045;29;20031;-82
2024/03/19 09:11:18;;;;;;;43.35;20.95;;;4.40;96.10;;;;;;4950820;29;20485;-84
2024/03/19 09:13:43;;;;;;;37.22;19.65;;;4.20;96.30;;;;;;4953768;29;20042;-83
2024/03/19 09:16:11;;;;;;;35.72;18.15;;;4.20;96.50;;;;;;4953086;29;20026;-80
2024/03/19 09:18:39;;;;;;;33.60;17.33;;;4.20;96.80;;;;;;4953822;28;20540;-84
2024/03/19 09:21:05;;;;;;;39.63;18.58;;;4.30;96.90;;;;;;4952856;28;20063;-82
2024/03/19 09:23:31;;;;;;;42.72;19.88;;;4.20;96.80;;;;;;4953213;28;20039;-85
2024/03/19 09:25:56;;;;;;;46.00;20.98;;;4.10;96.90;;;;;;4952394;28;20421;-84
2024/03/19 09:28:22;;;;;;;37.70;19.65;;;4.10;97.10;;;;;;4953376;28;20098;-83
2024/03/19 09:30:48;;;;;;;41.88;18.08;;;4.20;97.10;;;;;;4953967;28;20519;-83
2024/03/19 09:33:15;;;;;;;38.83;19.40;;;4.20;97.00;;;;;;4956650;28;20024;-82
2024/03/19 09:35:41;;;;;;;36.25;18.63;;;4.20;97.20;;;;;;4957545;28;20070;-83
2024/03/19 09:38:06;;;;;;;38.35;19.00;;;4.40;97.30;;;;;;4956733;28;20024;-82
2024/03/19 09:40:34;;;;;;;40.35;18.60;;;4.50;97.10;;;;;;4956720;29;20033;-81
2024/03/19 09:43:02;;;;;;;28.85;17.50;;;4.80;97.00;;;;;;4955938;29;20045;-81
2024/03/19 09:45:30;;;;;;;37.80;18.23;;;4.90;96.40;;;;;;4955175;29;20106;-81
2024/03/19 09:47:56;;;;;;;33.92;16.75;;;4.90;96.00;;;;;;4956634;28;20029;-82
2024/03/19 09:50:26;;;;;;;35.38;17.20;;;4.90;96.10;;;;;;4958344;29;20039;-80
2024/03/19 09:52:55;;;;;;;32.30;19.45;;;5.00;96.10;;;;;;4959597;29;20023;-83
2024/03/19 09:55:22;;;;;;;22.52;14.48;;;5.00;95.60;;;;;;4964863;28;20031;-85
2024/03/19 09:57:50;;;;;;;40.10;19.33;;;4.80;95.50;;;;;;4960793;29;20433;-84
2024/03/19 10:00:19;;;;;;;;;;;4.60;96.00;;;;;;4958523;29;20043;-89
2024/03/19 10:02:45;;;;;;;30.13;16.15;;;4.70;96.30;;;;;;4959226;29;20009;-91
2024/03/19 10:05:14;;;;;;;30.55;16.45;;;4.70;96.10;;;;;;4963647;29;20062;-90
2024/03/19 10:07:40;;;;;;;29.73;17.05;;;4.70;96.10;;;;;;4964661;29;20110;-86
2024/03/19 10:10:07;;;;;;;29.30;16.10;;;4.90;96.00;;;;;;4945334;28;20106;-79
2024/03/19 10:12:33;;;;;;;34.35;17.58;;;5.10;95.70;;;;;;4948592;29;20393;-80
2024/03/19 10:15:07;;;;;;;31.55;16.83;;;5.30;95.50;;;;;;4955817;29;20098;-81
2024/03/19 10:17:33;;;;;;;26.73;15.70;;;5.30;95.60;;;;;;4953349;28;20038;-81
2024/03/19 10:19:59;;;;;;;30.67;15.63;;;5.40;94.80;;;;;;4955546;28;20381;-82
2024/03/19 10:22:28;;;;;;;32.40;17.35;;;5.20;94.60;;;;;;4955837;28;20019;-81
2024/03/19 10:24:56;;;;;;;29.60;17.05;;;5.10;95.00;;;;;;4955440;28;20027;-82
2024/03/19 10:27:23;;;;;;;37.88;16.55;;;5.00;94.90;;;;;;4955766;28;20091;-79
2024/03/19 10:29:49;;;;;;;23.63;15.80;;;5.10;95.20;;;;;;4951668;28;20019;-82
2024/03/19 10:32:15;;;;;;;30.90;13.40;;;5.30;95.00;;;;;;4950062;28;20051;-81
2024/03/19 10:34:43;;;;;;;31.65;18.05;;;5.30;94.70;;;;;;4945537;29;20070;-81
2024/03/19 10:37:13;;;;;;;21.83;15.63;;;5.30;94.40;;;;;;4952914;29;20030;-81
2024/03/19 10:39:41;;;;;;;29.50;17.90;;;5.20;94.50;;;;;;4949428;28;20477;-81
2024/03/19 10:42:12;;;;;;;34.65;17.52;;;5.20;94.80;;;;;;4943050;29;20023;-81
2024/03/19 10:44:38;;;;;;;26.45;16.85;;;5.40;94.80;;;;;;4945924;29;20032;-81
2024/03/19 10:47:05;;;;;;;44.47;17.80;;;5.60;94.60;;;;;;4952609;29;20034;-82
2024/03/19 10:49:34;;;;;;;29.13;18.10;;;5.80;94.40;;;;;;4955026;29;20031;-85
2024/03/19 10:52:10;;;;;;;31.30;18.08;;;6.00;94.10;;;;;;4953756;28;20042;-84
2024/03/19 10:54:42;;;;;;;26.25;16.60;;;6.10;93.50;;;;;;4955316;28;20015;-84
2024/03/19 10:57:15;;;;;;;26.20;16.45;;;6.00;93.40;;;;;;4955347;29;20024;-84
2024/03/19 10:59:41;;;;;;;30.90;17.20;;;6.00;93.30;;;;;;4955639;28;20035;-84
2024/03/19 11:02:07;;;;;;;30.25;16.92;;;5.90;93.20;;;;;;4951422;29;20034;-84
2024/03/19 11:04:36;;;;;;;27.10;16.42;;;5.90;93.30;;;;;;4946603;29;20062;-84
2024/03/19 11:07:02;;;;;;;39.67;16.92;;;6.00;93.40;;;;;;4954993;29;20019;-85
2024/03/19 11:09:30;;;;;;;25.65;15.30;;;6.30;92.90;;;;;;4954749;28;20034;-83
2024/03/19 11:11:57;;;;;;;;;;;6.30;92.70;;;;;;4960750;28;20043;-84
2024/03/19 11:14:24;;;;;;;28.85;15.80;;;6.30;92.50;;;;;;4941455;29;19910;-82
2024/03/19 11:16:50;;;;;;;28.35;16.45;;;6.10;92.40;;;;;;4954465;28;20034;-82
2024/03/19 11:19:28;;;;;;;30.33;18.10;;;5.90;92.40;;;;;;4954507;28;20035;-80
2024/03/19 11:21:57;;;;;;;23.52;14.43;;;5.90;92.90;;;;;;4954623;29;20042;-81
2024/03/19 11:24:35;;;;;;;22.02;14.90;;;5.90;92.90;;;;;;4953687;29;20082;-82
2024/03/19 11:27:03;;;;;;;25.50;16.10;;;5.80;93.00;;;;;;4954564;28;20019;-82
2024/03/19 11:29:31;;;;;;;26.02;15.80;;;5.80;93.10;;;;;;4954692;29;20023;-83
2024/03/19 11:32:00;;;;;;;31.27;17.85;;;5.90;92.60;;;;;;4942492;28;20027;-81
2024/03/19 11:34:27;;;;;;;36.72;15.90;;;5.60;92.70;;;;;;4951483;29;20035;-82
2024/03/19 11:36:58;;;;;;;40.45;17.83;;;5.50;93.10;;;;;;4954408;29;20062;-81
2024/03/19 11:39:25;;;;;;;29.02;16.48;;;5.60;93.00;;;;;;4954115;28;20038;-82
2024/03/19 11:41:52;;;;;;;28.30;17.10;;;5.80;93.00;;;;;;4948051;29;20019;-81
2024/03/19 11:44:22;;;;;;;33.08;17.42;;;6.00;92.90;;;;;;4949043;28;20305;-81
2024/03/19 11:46:52;;;;;;;34.15;17.73;;;6.20;92.60;;;;;;4956655;28;20019;-82
2024/03/19 11:49:28;;;;;;;31.73;15.15;;;6.30;92.20;;;;;;4954284;28;20030;-81
2024/03/19 11:52:11;;;;;;;29.52;16.10;;;6.30;91.90;;;;;;4946647;28;20023;-81
2024/03/19 11:54:45;;;;;;;27.90;15.50;;;6.30;91.70;;;;;;4952623;29;20024;-80
2024/03/19 11:57:16;;;;;;;31.45;16.50;;;6.50;91.50;;;;;;4953952;28;20031;-81
2024/03/19 11:59:42;;;;;;;27.35;15.98;;;6.40;91.50;;;;;;4952602;29;20146;-80
2024/03/19 12:02:12;;;;;;;34.95;18.92;;;6.30;91.30;;;;;;4952072;29;20118;-80
2024/03/19 12:04:40;;;;;;;26.67;15.18;;;6.30;91.30;;;;;;4953866;28;20023;-80
2024/03/19 12:07:11;;;;;;;25.23;14.00;;;6.40;91.40;;;;;;4952735;29;20070;-82
2024/03/19 12:09:40;;;;;;;29.88;16.35;;;6.40;90.80;;;;;;4953757;28;20101;-82
2024/03/19 12:12:10;;;;;;;28.55;15.55;;;6.20;90.70;;;;;;4937137;29;20020;-81
2024/03/19 12:14:38;;;;;;;31.30;15.70;;;5.90;91.10;;;;;;4949948;29;20227;-81
2024/03/19 12:17:04;;;;;;;24.60;15.40;;;5.90;91.70;;;;;;4953561;28;20027;-81
2024/03/19 12:19:30;;;;;;;25.02;15.07;;;6.00;91.80;;;;;;4953292;28;20149;-80
2024/03/19 12:21:56;;;;;;;31.70;16.98;;;6.10;91.60;;;;;;4947361;29;20042;-81
2024/03/19 12:24:22;;;;;;;27.65;15.18;;;5.90;91.50;;;;;;4953631;28;20019;-80
2024/03/19 12:26:52;;;;;;;31.88;14.95;;;5.80;91.90;;;;;;4953419;28;20023;-82
2024/03/19 12:29:22;;;;;;;31.10;14.77;;;5.90;92.00;;;;;;4955769;28;20023;-80
2024/03/19 12:32:03;;;;;;;28.73;15.27;;;6.00;91.90;;;;;;4952921;28;20102;-79
2024/03/19 12:37:13;;;;;;;27.58;13.77;;;5.80;92.10;;;;;;4953562;29;20027;-80
2024/03/19 12:39:40;;;;;;;28.33;12.85;;;5.80;91.70;;;;;;4953917;28;20027;-81
2024/03/19 12:42:09;;;;;;;26.02;12.35;;;5.70;91.80;;;;;;4952426;29;20083;-81
2024/03/19 12:44:37;;;;;;;30.55;14.55;;;5.60;91.50;;;;;;4944374;29;20025;-80
2024/03/19 12:47:04;;;;;;;31.48;14.02;;;5.60;91.90;;;;;;4952133;29;20035;-81